EDT,Max TemperatureF,Mean TemperatureF,Min TemperatureF,Max Dew PointF,MeanDew PointF,Min DewpointF,Max Humidity, Mean Humidity, Min Humidity, Max Sea Level PressureIn, Mean Sea Level PressureIn, Min Sea Level PressureIn, Max VisibilityMiles, Mean VisibilityMiles, Min VisibilityMiles, Max Wind SpeedMPH, Mean Wind SpeedMPH, Max Gust SpeedMPH,PrecipitationIn, CloudCover, Events, WindDirDegrees
2012-10-1,65,56,47,57,51,45,95,85,60,30.01,29.96,29.93,10,8,2,6,0,,0.04,5,Rain,318
2012-10-2,69,64,59,65,61,57,96,91,83,29.99,29.95,29.92,10,4,1,6,0,,0.47,8,Rain,1
2012-10-3,81,72,62,68,64,61,97,82,52,30.18,30.10,29.99,10,6,0,7,1,,0.00,4,Fog-Rain,200
2012-10-4,80,68,55,67,59,49,93,71,36,30.23,30.19,30.17,10,10,7,8,2,,0.00,3,Rain,273
2012-10-5,78,64,49,56,53,47,94,72,39,30.23,30.14,30.02,10,9,5,8,1,,0.00,0,,190
2012-10-6,75,63,50,58,50,39,91,66,35,30.10,29.97,29.91,10,10,7,15,4,17,0.00,1,,306
2012-10-7,50,46,41,47,44,39,95,87,73,30.20,30.11,30.05,10,7,0,5,1,,0.09,7,Fog-Rain,215
2012-10-8,49,44,39,44,41,38,97,88,67,30.30,30.25,30.20,10,7,0,8,2,,0.04,8,Fog-Rain,7
2012-10-9,60,52,43,50,44,40,92,76,57,30.23,30.16,30.08,10,10,5,6,1,,0.01,8,,33
2012-10-10,68,55,42,50,44,34,95,64,39,30.14,30.02,29.94,10,9,1,16,4,24,0.00,4,,237
2012-10-11,64,51,38,39,33,26,81,53,31,30.32,30.24,30.15,10,10,10,9,3,,0.00,0,,201
2012-10-12,70,52,35,42,37,32,92,66,28,30.43,30.26,30.17,10,10,10,17,2,23,0.00,0,,19
2012-10-13,61,46,32,41,35,30,95,68,40,30.52,30.42,30.30,10,10,5,13,2,18,0.00,0,,178
2012-10-14,74,58,43,55,48,40,85,67,45,30.29,30.15,29.98,10,10,4,12,5,20,0.00,2,,190
2012-10-15,75,66,56,60,51,36,92,65,32,29.97,29.83,29.71,10,10,10,16,5,24,0.00,5,Rain,251
2012-10-16,66,54,41,44,39,35,89,58,33,29.96,29.92,29.88,10,10,5,9,3,,0.00,2,,333
2012-10-17,70,52,34,45,41,33,94,69,34,30.03,29.96,29.90,10,9,2,10,1,,0.00,0,,170
2012-10-18,67,54,42,58,50,40,92,76,60,29.93,29.87,29.79,10,10,4,16,4,25,0.02,3,Rain-Thunderstorm,172
2012-10-19,72,60,47,57,46,31,94,64,23,29.79,29.74,29.66,10,9,4,20,3,24,0.00,4,,221
2012-10-20,65,52,40,43,37,31,88,58,29,29.99,29.83,29.72,10,10,10,17,3,30,0.00,3,,243
2012-10-21,66,48,31,40,36,29,94,65,32,30.18,30.11,30.00,10,10,0,6,1,,0.00,0,,165
2012-10-22,74,53,32,45,38,30,94,65,30,30.26,30.19,30.14,10,10,7,5,0,,0.00,0,,162
2012-10-23,82,64,45,52,48,42,90,63,32,30.19,30.13,30.07,10,10,10,8,2,,0.00,0,,201
2012-10-24,81,65,49,54,48,44,89,65,28,30.20,30.15,30.11,10,10,10,6,0,17,0.00,0,,26
2012-10-25,80,62,45,59,51,43,92,69,35,30.21,30.17,30.14,10,10,5,12,2,17,0.00,0,,152
2012-10-26,73,61,49,60,53,48,97,83,57,30.21,30.14,30.07,10,6,0,9,1,,0.00,4,Fog,162
2012-10-27,66,60,54,58,54,50,94,80,63,30.06,29.95,29.89,10,7,2,10,3,,0.01,7,Rain,5
2012-10-28,59,55,51,53,49,46,88,75,64,29.89,29.77,29.69,10,10,7,17,9,22,0.04,8,Rain,9
2012-10-29,50,46,43,48,41,36,90,80,72,29.68,29.45,29.01,10,10,5,17,9,24,0.52,8,Rain,329
2012-10-30,45,42,38,36,34,32,87,76,62,29.48,29.25,29.00,10,10,10,16,10,25,0.06,8,Rain,216
2012-10-31,53,46,39,33,32,31,75,60,43,29.69,29.58,29.48,10,10,10,12,7,18,0.00,5,,226